Time;durP1;ratioP1;P1;durP2;ratioP2;P2;SDS_P1;SDS_P2;PMS_P1;PMS_P2;Temp;Humidity;BMP_temperature;BMP_pressure;BME280_temperature;BME280_humidity;BME280_pressure;Samples;Min_cycle;Max_cycle;Signal;HPM_P1;HPM_P2
2021/06/17 00:00:17;;;;;;;4.50;3.10;;;23.50;70.10;;;;;;4810945;29;20057;-88
2021/06/17 00:02:47;;;;;;;3.85;3.50;;;23.50;70.20;;;;;;4820291;29;20057;-87
2021/06/17 00:05:18;;;;;;;2.97;2.67;;;23.40;70.00;;;;;;4806433;29;20041;-88
2021/06/17 00:07:46;;;;;;;4.90;3.08;;;23.40;70.10;;;;;;4818512;29;20501;-88
2021/06/17 00:10:22;;;;;;;4.03;3.38;;;23.40;70.30;;;;;;4821251;29;20042;-87
2021/06/17 00:12:49;;;;;;;3.80;3.47;;;23.40;70.50;;;;;;4832458;29;20785;-88
2021/06/17 00:15:18;;;;;;;6.55;4.07;;;23.30;70.60;;;;;;4817446;29;20034;-88
2021/06/17 00:17:46;;;;;;;4.78;4.20;;;23.30;70.50;;;;;;4834726;29;20628;-87
2021/06/17 00:20:13;;;;;;;5.43;4.10;;;23.30;70.60;;;;;;4832999;29;20054;-88
2021/06/17 00:22:40;;;;;;;4.72;3.35;;;23.30;70.80;;;;;;4833970;29;20061;-88
2021/06/17 00:25:08;;;;;;;5.75;3.97;;;23.30;70.70;;;;;;4820079;29;20034;-88
2021/06/17 00:27:34;;;;;;;5.05;4.15;;;23.30;70.60;;;;;;4805246;29;20484;-88
2021/06/17 00:30:01;;;;;;;4.30;3.85;;;23.20;70.40;;;;;;4834042;29;20406;-88
2021/06/17 00:32:28;;;;;;;6.22;3.72;;;23.20;70.60;;;;;;4816065;29;20042;-86
2021/06/17 00:34:55;;;;;;;8.90;4.25;;;23.20;70.60;;;;;;4819692;29;20065;-89
2021/06/17 00:37:21;;;;;;;4.18;3.72;;;23.20;70.80;;;;;;4790605;29;20044;-88
2021/06/17 00:39:48;;;;;;;6.55;4.25;;;23.10;71.10;;;;;;4819696;29;20061;-88
2021/06/17 00:42:15;;;;;;;4.82;4.10;;;23.10;71.40;;;;;;4788481;29;20046;-90
2021/06/17 00:44:42;;;;;;;5.22;3.97;;;23.00;71.40;;;;;;4805293;29;20098;-87
2021/06/17 00:47:09;;;;;;;4.47;3.95;;;23.00;71.60;;;;;;4835928;29;20041;-87
2021/06/17 00:49:35;;;;;;;4.40;3.97;;;23.00;71.80;;;;;;4789476;29;20038;-87
2021/06/17 00:52:06;;;;;;;4.90;3.72;;;23.00;72.00;;;;;;4801784;29;20133;-86
2021/06/17 00:54:34;;;;;;;4.43;3.80;;;23.00;72.20;;;;;;4806540;29;20046;-89
2021/06/17 00:57:06;;;;;;;5.75;3.63;;;23.00;72.50;;;;;;4832603;29;20046;-86
2021/06/17 00:59:34;;;;;;;5.85;3.88;;;22.90;72.70;;;;;;4835182;29;20030;-88
2021/06/17 01:02:01;;;;;;;5.63;3.83;;;22.90;72.90;;;;;;4834531;29;20037;-87
2021/06/17 01:04:28;;;;;;;4.35;3.50;;;22.80;73.10;;;;;;4822520;29;20049;-87
2021/06/17 01:06:56;;;;;;;4.07;3.70;;;22.80;73.00;;;;;;4835207;29;20493;-87
2021/06/17 01:10:05;;;;;;;5.97;3.42;;;22.80;73.10;;;;;;4833973;29;20073;-89
2021/06/17 01:12:37;;;;;;;5.78;3.83;;;22.80;73.40;;;;;;4731333;30;20087;-86
2021/06/17 01:15:07;;;;;;;5.22;3.90;;;22.70;73.50;;;;;;4838620;29;20050;-87
2021/06/17 01:17:42;;;;;;;6.45;3.80;;;22.70;73.50;;;;;;4836337;29;20034;-89
2021/06/17 01:20:14;;;;;;;5.10;4.00;;;22.70;73.60;;;;;;4828557;29;20068;-88
2021/06/17 01:22:46;;;;;;;4.53;4.07;;;22.70;73.60;;;;;;4819823;29;20049;-87
2021/06/17 01:25:46;;;;;;;4.85;3.83;;;22.70;73.50;;;;;;4821673;29;20046;-87
2021/06/17 01:28:17;;;;;;;4.20;3.72;;;22.60;73.60;;;;;;4820521;29;20406;-87
2021/06/17 01:30:54;;;;;;;4.03;3.63;;;22.60;73.70;;;;;;4808426;29;20521;-87
2021/06/17 01:33:24;;;;;;;5.28;3.65;;;22.60;73.70;;;;;;4813521;29;20495;-89
2021/06/17 01:35:51;;;;;;;5.38;3.97;;;22.60;74.00;;;;;;4836470;29;20413;-88
2021/06/17 01:38:22;;;;;;;4.82;3.88;;;22.60;74.20;;;;;;4806096;29;20057;-88
2021/06/17 01:40:50;;;;;;;4.18;3.75;;;22.60;74.30;;;;;;4806835;29;20034;-88
2021/06/17 01:43:19;;;;;;;5.97;3.45;;;22.50;74.40;;;;;;4837772;29;20402;-89
2021/06/17 01:45:47;;;;;;;5.20;3.33;;;22.50;74.40;;;;;;4811474;29;20045;-89
2021/06/17 01:48:15;;;;;;;5.20;4.10;;;22.50;74.70;;;;;;4818426;29;20073;-89
2021/06/17 01:50:44;;;;;;;6.22;4.43;;;22.50;74.80;;;;;;4806965;29;20053;-88
2021/06/17 01:53:12;;;;;;;5.63;4.20;;;22.40;75.00;;;;;;4837630;29;20050;-88
2021/06/17 01:55:40;;;;;;;5.05;4.50;;;22.40;75.40;;;;;;4821343;29;20406;-81
2021/06/17 01:58:13;;;;;;;4.90;4.15;;;22.40;75.70;;;;;;4803271;29;20045;-80
2021/06/17 02:00:46;;;;;;;5.65;4.63;;;22.40;76.00;;;;;;4806043;29;20042;-81
2021/06/17 02:03:15;;;;;;;4.90;4.40;;;22.30;76.00;;;;;;4791776;29;20053;-80
2021/06/17 02:05:42;;;;;;;4.88;4.28;;;22.30;75.80;;;;;;4836416;29;20057;-81
2021/06/17 02:08:10;;;;;;;6.57;4.03;;;22.30;75.70;;;;;;4807051;29;20034;-80
2021/06/17 02:10:39;;;;;;;6.10;4.28;;;22.30;76.00;;;;;;4806791;29;20034;-80
2021/06/17 02:13:10;;;;;;;6.00;4.45;;;22.30;76.20;;;;;;4826550;29;20054;-80
2021/06/17 02:15:37;;;;;;;5.88;4.75;;;22.20;76.40;;;;;;4836746;29;20049;-79
2021/06/17 02:18:04;;;;;;;5.50;4.57;;;22.20;76.60;;;;;;4806111;29;20896;-80
2021/06/17 02:20:31;;;;;;;6.13;5.53;;;22.20;76.80;;;;;;4806584;29;20042;-80
2021/06/17 02:23:08;;;;;;;9.25;5.45;;;22.20;77.20;;;;;;4805673;29;20053;-80
2021/06/17 02:25:35;;;;;;;7.72;5.25;;;22.20;77.20;;;;;;4804193;29;20042;-80
2021/06/17 02:28:06;;;;;;;6.40;5.22;;;22.20;77.10;;;;;;4792332;29;20413;-81
2021/06/17 02:30:43;;;;;;;7.07;5.73;;;22.20;77.40;;;;;;4835594;29;20614;-81
2021/06/17 02:33:12;;;;;;;7.00;5.70;;;22.20;77.50;;;;;;4806252;29;20042;-83
2021/06/17 02:35:43;;;;;;;5.32;4.72;;;22.10;77.60;;;;;;4819654;29;20041;-83
2021/06/17 02:38:13;;;;;;;6.00;5.40;;;22.10;77.70;;;;;;4837899;29;20490;-83
2021/06/17 02:40:46;;;;;;;7.35;5.63;;;22.10;77.90;;;;;;4821691;29;20558;-83
2021/06/17 02:43:18;;;;;;;7.15;5.75;;;22.10;78.00;;;;;;4822076;29;20041;-81
2021/06/17 02:45:47;;;;;;;8.52;5.97;;;22.10;78.20;;;;;;4837041;29;20105;-81
2021/06/17 02:48:14;;;;;;;7.90;6.10;;;22.00;78.00;;;;;;4838440;29;20121;-82
2021/06/17 02:50:42;;;;;;;8.18;5.55;;;22.00;78.20;;;;;;4806190;29;20750;-81
2021/06/17 02:53:08;;;;;;;7.57;6.32;;;22.00;78.30;;;;;;4806302;29;20033;-82
2021/06/17 02:55:36;;;;;;;6.20;5.60;;;22.00;78.40;;;;;;4821890;29;20049;-82
2021/06/17 02:58:27;;;;;;;9.32;6.85;;;21.90;78.60;;;;;;4837002;29;20064;-82
2021/06/17 03:01:07;;;;;;;9.55;6.78;;;21.90;79.10;;;;;;4820442;29;20050;-81
2021/06/17 03:03:41;;;;;;;8.23;6.63;;;21.90;79.10;;;;;;4836419;29;20153;-81
2021/06/17 03:06:40;;;;;;;8.73;6.82;;;21.90;79.20;;;;;;4805673;29;20057;-81
2021/06/17 03:09:12;;;;;;;8.02;7.18;;;21.90;79.40;;;;;;4835805;29;20042;-82
2021/06/17 03:11:42;;;;;;;7.65;7.03;;;21.90;79.30;;;;;;4820336;29;20037;-81
2021/06/17 03:14:19;;;;;;;9.18;8.27;;;21.90;79.40;;;;;;4821496;29;20053;-81
2021/06/17 03:16:52;;;;;;;11.50;8.25;;;21.90;79.70;;;;;;4821713;29;20049;-82
2021/06/17 03:19:20;;;;;;;8.38;7.57;;;21.90;79.90;;;;;;4819345;29;20034;-81
2021/06/17 03:21:51;;;;;;;7.88;7.07;;;21.90;79.90;;;;;;4805058;29;20061;-82
2021/06/17 03:24:23;;;;;;;10.32;8.00;;;21.90;79.90;;;;;;4821162;29;20046;-82
2021/06/17 03:26:52;;;;;;;8.18;7.47;;;21.90;80.20;;;;;;4837397;29;20057;-81
2021/06/17 03:29:24;;;;;;;11.45;8.68;;;21.90;80.20;;;;;;4806474;29;20042;-82
2021/06/17 03:31:52;;;;;;;9.88;8.70;;;21.90;80.20;;;;;;4820044;29;20038;-81
2021/06/17 03:34:20;;;;;;;9.43;8.15;;;21.90;80.10;;;;;;4821782;29;20042;-82
2021/06/17 03:36:48;;;;;;;9.10;7.68;;;22.00;80.20;;;;;;4818261;29;20069;-82
2021/06/17 03:39:16;;;;;;;9.48;7.65;;;22.00;80.20;;;;;;4820563;29;20137;-82
2021/06/17 03:41:43;;;;;;;8.90;7.95;;;22.00;80.20;;;;;;4837082;29;20038;-81
2021/06/17 03:44:11;;;;;;;10.57;8.32;;;22.00;80.50;;;;;;4835622;29;20514;-82
2021/06/17 03:46:38;;;;;;;10.40;8.35;;;22.00;80.70;;;;;;4804677;29;20047;-82
2021/06/17 03:49:06;;;;;;;9.20;7.35;;;22.00;80.80;;;;;;4836506;29;20065;-81
2021/06/17 03:51:33;;;;;;;9.80;8.60;;;22.00;80.90;;;;;;4820613;29;20042;-82
2021/06/17 03:54:01;;;;;;;9.88;7.63;;;22.00;81.00;;;;;;4805827;29;20038;-81
2021/06/17 03:56:31;;;;;;;12.73;10.88;;;22.00;81.10;;;;;;4821881;29;20050;-81
2021/06/17 03:59:01;;;;;;;15.70;11.05;;;22.00;81.60;;;;;;4827273;29;20074;-81
2021/06/17 04:01:30;;;;;;;7.70;7.00;;;22.00;82.20;;;;;;4804129;29;20490;-81
2021/06/17 04:03:56;;;;;;;9.43;8.43;;;22.00;81.50;;;;;;4805354;29;20961;-81
2021/06/17 04:06:26;;;;;;;12.15;10.07;;;22.10;81.40;;;;;;4820652;29;20046;-81
2021/06/17 04:08:55;;;;;;;11.38;8.90;;;22.10;81.50;;;;;;4805186;29;21418;-82
2021/06/17 04:11:23;;;;;;;11.48;9.98;;;22.10;81.50;;;;;;4826287;29;20050;-82
2021/06/17 04:13:53;;;;;;;10.77;7.95;;;22.10;81.40;;;;;;4835057;29;20042;-81
2021/06/17 04:16:22;;;;;;;10.63;8.82;;;22.20;81.50;;;;;;4805642;29;20042;-82
2021/06/17 04:18:50;;;;;;;11.80;9.55;;;22.20;82.30;;;;;;4835244;29;20046;-82
2021/06/17 04:21:18;;;;;;;10.55;9.45;;;22.20;81.70;;;;;;4804824;29;20061;-81
2021/06/17 04:23:51;;;;;;;9.52;8.63;;;22.30;81.80;;;;;;4805413;29;20041;-81
2021/06/17 04:26:20;;;;;;;10.02;9.02;;;22.30;81.80;;;;;;4805185;29;20418;-86
2021/06/17 04:28:57;;;;;;;11.68;9.02;;;22.40;81.90;;;;;;4836254;29;20187;-83
2021/06/17 04:31:25;;;;;;;9.68;8.68;;;22.40;81.80;;;;;;4802166;29;20550;-84
2021/06/17 04:33:51;;;;;;;12.35;8.45;;;22.40;81.80;;;;;;4835839;29;20054;-85
2021/06/17 04:36:18;;;;;;;9.95;8.93;;;22.40;81.70;;;;;;4835567;29;20065;-84
2021/06/17 04:38:49;;;;;;;10.27;9.00;;;22.50;81.80;;;;;;4805232;29;20046;-85
2021/06/17 04:41:16;;;;;;;12.93;10.25;;;22.60;81.60;;;;;;4806605;29;20483;-84
2021/06/17 04:43:43;;;;;;;10.00;8.93;;;22.70;81.50;;;;;;4836794;29;20056;-83
2021/06/17 04:46:11;;;;;;;10.30;9.40;;;22.80;81.40;;;;;;4836058;29;20038;-84
2021/06/17 04:48:39;;;;;;;10.93;9.10;;;22.90;81.30;;;;;;4819915;29;20482;-83
2021/06/17 04:51:09;;;;;;;10.57;9.35;;;23.00;81.70;;;;;;4817779;29;20435;-84
2021/06/17 04:53:36;;;;;;;10.93;9.85;;;23.00;80.90;;;;;;4803551;29;20054;-83
2021/06/17 04:56:03;;;;;;;11.48;10.27;;;23.10;80.90;;;;;;4804430;29;20046;-79
2021/06/17 04:58:32;;;;;;;12.05;8.82;;;23.10;80.80;;;;;;4810656;29;20497;-79
2021/06/17 05:00:59;;;;;;;9.82;8.80;;;23.20;80.70;;;;;;4813182;29;20065;-80
2021/06/17 05:03:25;;;;;;;10.43;9.43;;;23.30;80.60;;;;;;4817651;29;20672;-80
2021/06/17 05:05:53;;;;;;;12.57;10.95;;;23.40;80.70;;;;;;4789164;29;20058;-80
2021/06/17 05:10:49;;;;;;;11.20;9.85;;;23.60;80.40;;;;;;4833394;29;20050;-79
2021/06/17 05:13:30;;;;;;;11.52;9.65;;;23.70;80.10;;;;;;4786347;29;20041;-79
2021/06/17 05:16:02;;;;;;;6.80;6.20;;;23.80;79.90;;;;;;4821493;29;20045;-78
2021/06/17 05:18:28;;;;;;;12.20;10.98;;;23.90;79.50;;;;;;4831209;29;20042;-80
2021/06/17 05:20:57;;;;;;;10.48;9.23;;;24.00;79.30;;;;;;4798660;29;20053;-79
2021/06/17 05:23:24;;;;;;;10.43;9.32;;;24.10;79.10;;;;;;4805863;29;20042;-80
2021/06/17 05:25:52;;;;;;;12.30;9.02;;;24.20;78.90;;;;;;4786603;29;20038;-79
2021/06/17 05:28:21;;;;;;;10.77;9.73;;;24.30;78.60;;;;;;4816758;29;20046;-79
2021/06/17 05:30:50;;;;;;;11.60;9.90;;;24.50;78.60;;;;;;4831704;29;20073;-78
2021/06/17 05:33:17;;;;;;;10.00;8.73;;;24.60;78.30;;;;;;4800470;29;20049;-79
2021/06/17 05:35:46;;;;;;;9.05;8.25;;;24.70;77.90;;;;;;4820335;29;20050;-83
2021/06/17 05:38:48;;;;;;;12.45;9.52;;;24.80;77.60;;;;;;4793209;29;20138;-86
2021/06/17 05:41:35;;;;;;;9.30;8.13;;;24.90;77.30;;;;;;4808648;29;20394;-82
2021/06/17 05:44:02;;;;;;;10.27;8.55;;;25.10;76.80;;;;;;4820615;29;20045;-82
2021/06/17 05:46:29;;;;;;;9.82;8.55;;;25.20;76.20;;;;;;4791121;29;20046;-81
2021/06/17 05:48:55;;;;;;;10.25;7.20;;;25.30;76.00;;;;;;4807454;29;20057;-81
2021/06/17 05:51:22;;;;;;;10.63;9.07;;;25.40;75.60;;;;;;4822673;29;20049;-81
2021/06/17 05:53:48;;;;;;;10.25;8.50;;;25.50;75.40;;;;;;4807831;29;20061;-81
2021/06/17 05:56:15;;;;;;;10.60;7.90;;;25.60;75.30;;;;;;4813515;29;20046;-81
2021/06/17 05:58:41;;;;;;;12.95;6.93;;;25.70;75.10;;;;;;4836524;29;20038;-81
2021/06/17 06:01:08;;;;;;;8.18;7.22;;;26.00;74.80;;;;;;4806269;29;20057;-85
2021/06/17 06:03:37;;;;;;;8.15;6.53;;;26.20;74.40;;;;;;4820812;29;20352;-84
2021/06/17 06:06:13;;;;;;;7.45;6.70;;;26.60;73.70;;;;;;4821801;29;20046;-84
2021/06/17 06:09:01;;;;;;;8.93;6.78;;;26.80;72.50;;;;;;4824133;29;20064;-84
2021/06/17 06:11:30;;;;;;;6.10;5.55;;;27.00;71.70;;;;;;4817995;29;20054;-83
2021/06/17 06:13:57;;;;;;;7.15;4.95;;;27.10;71.30;;;;;;4834871;29;20052;-83
2021/06/17 06:16:24;;;;;;;6.13;4.93;;;27.20;70.90;;;;;;4822429;29;20041;-83
2021/06/17 06:18:52;;;;;;;7.53;6.38;;;27.40;70.40;;;;;;4807259;29;20038;-84
2021/06/17 06:21:19;;;;;;;5.82;5.22;;;27.50;69.30;;;;;;4820931;29;20058;-83
2021/06/17 06:23:45;;;;;;;6.18;5.07;;;27.70;68.80;;;;;;4823267;29;20066;-93
2021/06/17 06:26:15;;;;;;;5.95;4.53;;;27.80;68.70;;;;;;4810989;29;20517;-92
2021/06/17 06:28:42;;;;;;;5.97;3.50;;;28.10;68.10;;;;;;4812546;29;20052;-94
2021/06/17 06:31:16;;;;;;;4.57;3.63;;;28.40;67.40;;;;;;4812199;29;20057;-93
2021/06/17 06:33:45;;;;;;;5.43;3.85;;;28.50;66.80;;;;;;4802331;29;20049;-93
2021/06/17 06:36:12;;;;;;;3.88;3.00;;;28.60;66.50;;;;;;4824644;29;20049;-93
2021/06/17 06:38:44;;;;;;;5.70;3.80;;;28.70;66.00;;;;;;4811065;29;20398;-90
2021/06/17 06:41:23;;;;;;;4.47;3.90;;;28.70;65.80;;;;;;4810772;29;20861;-93
2021/06/17 06:44:03;;;;;;;5.40;4.20;;;28.70;65.30;;;;;;4810755;29;20034;-93
2021/06/17 06:46:38;;;;;;;5.97;4.43;;;28.80;65.00;;;;;;4826898;29;20426;-93
2021/06/17 06:49:52;;;;;;;4.70;3.60;;;28.70;64.60;;;;;;4764496;30;20393;-94
2021/06/17 06:56:42;;;;;;;;;;;28.90;64.70;;;;;;4764162;30;20048;-88
2021/06/17 06:59:09;;;;;;;7.47;3.83;;;29.20;64.30;;;;;;4753004;30;19918;-84
2021/06/17 07:01:37;;;;;;;4.45;3.45;;;29.40;63.40;;;;;;4805723;29;20057;-87
2021/06/17 07:04:04;;;;;;;4.70;3.58;;;29.60;62.90;;;;;;4792278;29;20042;-85
2021/06/17 07:06:34;;;;;;;4.57;3.55;;;29.70;62.30;;;;;;4821577;29;20033;-85
2021/06/17 07:09:01;;;;;;;4.15;3.17;;;29.80;62.30;;;;;;4820919;29;20398;-85
2021/06/17 07:11:31;;;;;;;6.22;3.33;;;29.80;62.00;;;;;;4820687;29;20045;-84
2021/06/17 07:13:58;;;;;;;6.40;3.83;;;29.90;61.60;;;;;;4806016;29;20128;-86
2021/06/17 07:16:25;;;;;;;5.35;2.97;;;29.80;62.10;;;;;;4820226;29;20042;-86
2021/06/17 07:18:53;;;;;;;6.22;2.97;;;29.80;61.60;;;;;;4820530;29;20455;-85
2021/06/17 07:21:20;;;;;;;5.45;3.58;;;29.90;61.50;;;;;;4805695;29;20169;-85
2021/06/17 07:23:50;;;;;;;4.68;3.38;;;29.80;61.40;;;;;;4790635;29;20049;-86
2021/06/17 07:26:20;;;;;;;5.43;3.50;;;29.70;61.60;;;;;;4806583;29;20536;-85
2021/06/17 07:28:49;;;;;;;4.07;3.47;;;29.60;61.80;;;;;;4819263;29;20042;-87
2021/06/17 07:31:16;;;;;;;5.88;4.18;;;29.40;62.10;;;;;;4790949;29;20045;-82
2021/06/17 07:33:43;;;;;;;4.82;3.30;;;29.40;62.10;;;;;;4837162;29;20050;-83
2021/06/17 07:36:12;;;;;;;6.35;3.78;;;29.40;62.30;;;;;;4806542;29;20068;-82
2021/06/17 07:38:39;;;;;;;5.78;3.70;;;29.50;61.90;;;;;;4835461;29;20401;-81
2021/06/17 07:41:05;;;;;;;4.68;3.10;;;29.70;61.50;;;;;;4835870;29;20057;-81
2021/06/17 07:43:35;;;;;;;10.60;3.38;;;29.60;61.20;;;;;;4821034;29;20042;-87
2021/06/17 07:46:06;;;;;;;4.95;3.72;;;29.50;61.60;;;;;;4821303;29;20045;-87
2021/06/17 07:54:10;;;;;;;6.13;2.65;;;29.80;61.90;;;;;;4803949;29;20053;-86
2021/06/17 07:56:40;;;;;;;3.95;2.55;;;30.40;61.60;;;;;;4773464;29;20057;-85
2021/06/17 07:59:07;;;;;;;6.30;2.65;;;30.60;61.00;;;;;;4817154;29;20037;-84
2021/06/17 08:01:34;;;;;;;3.47;2.78;;;30.90;59.90;;;;;;4820494;29;20070;-84
2021/06/17 08:04:06;;;;;;;3.40;2.33;;;31.10;59.30;;;;;;4835743;29;20042;-83
2021/06/17 08:06:36;;;;;;;4.80;2.70;;;31.20;59.60;;;;;;4806166;29;20074;-81
2021/06/17 08:09:04;;;;;;;4.20;2.72;;;31.30;58.60;;;;;;4818181;29;20814;-84
2021/06/17 08:11:30;;;;;;;4.30;2.28;;;31.40;58.30;;;;;;4818656;29;20054;-83
2021/06/17 08:13:57;;;;;;;5.65;1.90;;;31.50;57.40;;;;;;4820201;29;20046;-85
2021/06/17 08:16:24;;;;;;;7.65;2.30;;;31.60;56.80;;;;;;4835663;29;20054;-81
2021/06/17 08:18:54;;;;;;;7.10;2.20;;;31.70;56.40;;;;;;4804038;29;20362;-82
2021/06/17 08:21:22;;;;;;;3.67;2.08;;;31.80;56.00;;;;;;4805291;29;20042;-83
2021/06/17 08:23:54;;;;;;;7.70;1.80;;;32.00;55.70;;;;;;4805138;29;20037;-83
2021/06/17 08:26:21;;;;;;;3.50;1.40;;;32.10;54.80;;;;;;4805084;29;20064;-83
2021/06/17 08:28:48;;;;;;;5.68;2.38;;;32.30;54.70;;;;;;4832656;29;20109;-83
2021/06/17 08:31:15;;;;;;;5.07;2.08;;;32.40;53.60;;;;;;4819546;29;20050;-85
2021/06/17 08:33:42;;;;;;;8.10;2.40;;;32.50;52.90;;;;;;4818645;29;20050;-86
2021/06/17 08:36:12;;;;;;;7.97;2.72;;;32.60;52.20;;;;;;4800224;29;20078;-93
2021/06/17 08:38:45;;;;;;;2.92;2.15;;;32.60;52.20;;;;;;4816807;29;20151;-86
2021/06/17 08:41:16;;;;;;;3.42;1.77;;;32.70;52.30;;;;;;4819100;29;20054;-88
2021/06/17 08:43:43;;;;;;;4.70;2.00;;;32.70;52.30;;;;;;4833846;29;20057;-84
2021/06/17 08:46:16;;;;;;;5.45;2.70;;;32.80;52.30;;;;;;4818008;29;20038;-84
2021/06/17 08:48:45;;;;;;;4.57;2.40;;;32.90;52.20;;;;;;4804243;29;20512;-85
2021/06/17 08:51:13;;;;;;;6.07;2.63;;;33.00;52.20;;;;;;4816292;29;20042;-82
2021/06/17 08:53:40;;;;;;;2.92;2.00;;;33.10;52.00;;;;;;4803211;29;20065;-83
2021/06/17 08:56:07;;;;;;;3.78;1.73;;;33.10;51.70;;;;;;4803718;29;20046;-84
2021/06/17 08:58:34;;;;;;;2.95;2.10;;;33.20;51.40;;;;;;4803591;29;20045;-84
2021/06/17 09:01:14;;;;;;;3.42;1.63;;;33.20;51.00;;;;;;4833510;29;20042;-85
2021/06/17 09:03:42;;;;;;;5.20;1.95;;;33.20;51.40;;;;;;4807438;29;20658;-85
2021/06/17 09:07:22;;;;;;;;;;;;;;;;;;;;;
2021/06/17 09:23:22;;;;;;;2.45;1.30;;;34.00;50.30;;;;;;4814598;29;20478;-89
2021/06/17 09:30:19;;;;;;;5.30;1.67;;;34.10;49.00;;;;;;4796768;29;20561;-87
2021/06/17 09:32:52;;;;;;;6.03;1.80;;;34.20;49.30;;;;;;4818683;29;20731;-87
2021/06/17 09:35:28;;;;;;;2.75;1.58;;;34.40;49.00;;;;;;4801650;29;20033;-86
2021/06/17 09:38:05;;;;;;;4.30;1.60;;;34.40;49.30;;;;;;4802632;29;20047;-87
2021/06/17 09:40:44;;;;;;;3.35;2.00;;;34.50;48.80;;;;;;4818547;29;20505;-87
2021/06/17 09:43:23;;;;;;;5.72;1.50;;;34.60;48.40;;;;;;4831596;29;20402;-85
2021/06/17 09:46:00;;;;;;;3.78;1.50;;;34.60;48.20;;;;;;4817084;29;20045;-85
2021/06/17 09:48:31;;;;;;;3.03;1.85;;;34.70;47.90;;;;;;4832555;29;20041;-85
2021/06/17 09:50:57;;;;;;;4.25;1.35;;;34.70;47.50;;;;;;4831335;29;20588;-85
2021/06/17 09:53:27;;;;;;;2.40;1.48;;;34.80;47.60;;;;;;4817346;29;20044;-85
2021/06/17 09:55:54;;;;;;;4.72;1.80;;;34.80;47.50;;;;;;4816695;29;20132;-85
2021/06/17 09:58:38;;;;;;;2.58;1.90;;;34.80;47.10;;;;;;4802323;29;20049;-84
2021/06/17 10:01:12;;;;;;;4.43;1.50;;;34.90;47.50;;;;;;4832631;29;20046;-84
2021/06/17 10:03:41;;;;;;;4.88;1.50;;;35.00;47.30;;;;;;4806529;29;20042;-86
2021/06/17 10:06:56;;;;;;;2.63;1.33;;;35.10;47.00;;;;;;4795421;29;20065;-91
2021/06/17 10:09:59;;;;;;;1.80;1.10;;;35.20;47.00;;;;;;4823218;29;20037;-90
2021/06/17 10:12:34;;;;;;;3.20;1.88;;;35.30;46.90;;;;;;4819782;29;20045;-89
2021/06/17 10:15:07;;;;;;;4.38;1.40;;;35.60;46.70;;;;;;4807275;29;20053;-90
2021/06/17 10:17:37;;;;;;;3.38;1.45;;;35.80;46.10;;;;;;4829762;29;20073;-88
2021/06/17 10:20:07;;;;;;;4.22;1.85;;;35.90;45.90;;;;;;4804539;29;20038;-86
2021/06/17 10:22:39;;;;;;;2.88;1.40;;;35.90;45.50;;;;;;4821940;29;20040;-88
2021/06/17 10:25:28;;;;;;;5.47;2.10;;;36.00;45.60;;;;;;4804635;29;20037;-85
2021/06/17 10:28:02;;;;;;;6.30;2.55;;;36.00;46.20;;;;;;4809171;29;20052;-93
2021/06/17 10:31:11;;;;;;;3.88;2.72;;;36.10;45.80;;;;;;4838216;29;20490;-81
2021/06/17 10:33:39;;;;;;;3.15;1.90;;;36.00;45.60;;;;;;4808740;29;20050;-88
2021/06/17 10:36:52;;;;;;;2.97;2.15;;;36.00;45.90;;;;;;4823646;29;20069;-88
2021/06/17 10:39:11;;;;;;;3.00;2.08;;;36.10;45.60;;;;;;4818145;29;20717;-87
2021/06/17 10:41:47;;;;;;;4.10;2.40;;;36.20;45.40;;;;;;4807900;29;20412;-87
2021/06/17 10:44:41;;;;;;;4.03;2.03;;;36.20;45.60;;;;;;4811204;29;20068;-87
2021/06/17 10:50:45;;;;;;;3.88;2.60;;;36.80;45.70;;;;;;4823814;29;20053;-87
2021/06/17 10:53:23;;;;;;;4.68;1.88;;;36.90;45.40;;;;;;4834830;29;20050;-87
2021/06/17 10:56:02;;;;;;;3.75;1.98;;;37.20;45.50;;;;;;4836645;29;20041;-87
2021/06/17 10:58:41;;;;;;;4.70;2.70;;;37.40;44.40;;;;;;4820525;29;20046;-88
2021/06/17 11:01:36;;;;;;;5.10;2.33;;;37.50;43.90;;;;;;4836544;29;20061;-88
2021/06/17 11:04:36;;;;;;;5.22;2.10;;;37.60;43.80;;;;;;4814068;29;20046;-87
2021/06/17 11:07:02;;;;;;;6.97;1.67;;;37.80;43.70;;;;;;4806862;29;20500;-87
2021/06/17 11:09:35;;;;;;;2.78;1.98;;;38.00;43.50;;;;;;4820548;29;20046;-87
2021/06/17 11:12:24;;;;;;;4.07;2.25;;;38.30;43.30;;;;;;4819670;29;20041;-88
2021/06/17 11:14:57;;;;;;;6.72;2.25;;;38.70;42.90;;;;;;4819407;29;20052;-88
2021/06/17 11:17:30;;;;;;;5.18;2.00;;;38.90;42.20;;;;;;4820943;29;20049;-89
2021/06/17 11:19:57;;;;;;;7.13;2.72;;;39.10;42.20;;;;;;4819772;29;20382;-88
2021/06/17 11:22:44;;;;;;;3.45;2.25;;;39.10;41.40;;;;;;4805865;29;20046;-87
2021/06/17 11:25:13;;;;;;;5.57;2.00;;;38.90;42.10;;;;;;4820096;29;20133;-86
2021/06/17 11:27:59;;;;;;;3.60;2.05;;;38.90;42.40;;;;;;4818637;29;20051;-87
2021/06/17 11:30:37;;;;;;;8.50;2.47;;;39.20;42.70;;;;;;4832769;29;20050;-88
2021/06/17 11:33:24;;;;;;;2.72;2.00;;;39.50;41.90;;;;;;4835588;29;20050;-86
2021/06/17 11:35:51;;;;;;;4.40;2.30;;;39.80;41.90;;;;;;4802880;29;20050;-86
2021/06/17 11:38:28;;;;;;;3.10;1.90;;;40.10;41.60;;;;;;4817372;29;20042;-86
2021/06/17 11:40:55;;;;;;;5.75;2.03;;;40.40;41.50;;;;;;4818463;29;20045;-87
2021/06/17 11:43:25;;;;;;;3.42;1.90;;;40.70;40.70;;;;;;4819395;29;20046;-86
2021/06/17 11:45:52;;;;;;;3.50;2.08;;;41.00;40.60;;;;;;4822691;29;20046;-86
2021/06/17 11:48:21;;;;;;;4.97;2.20;;;41.20;40.30;;;;;;4818476;29;20037;-87
2021/06/17 11:50:50;;;;;;;4.82;2.28;;;41.60;40.10;;;;;;4816409;29;20046;-86
2021/06/17 11:53:27;;;;;;;6.00;2.08;;;41.90;38.80;;;;;;4819006;29;20045;-87
2021/06/17 11:55:56;;;;;;;3.17;1.77;;;41.90;38.20;;;;;;4817313;29;20330;-87
2021/06/17 11:58:26;;;;;;;5.88;2.47;;;42.10;38.00;;;;;;4817009;29;20037;-87
2021/06/17 12:00:55;;;;;;;3.03;1.80;;;42.30;37.40;;;;;;4823860;29;20049;-87
2021/06/17 12:03:26;;;;;;;3.55;1.95;;;42.30;37.70;;;;;;4817534;29;20045;-87
2021/06/17 12:06:04;;;;;;;;;;;42.40;36.90;;;;;;4818969;29;20462;-86
2021/06/17 12:08:30;;;;;;;3.47;1.63;;;42.60;37.10;;;;;;4817795;29;19917;-87
2021/06/17 12:11:01;;;;;;;4.85;2.00;;;42.90;36.80;;;;;;4809011;29;20045;-88
2021/06/17 12:13:28;;;;;;;3.35;2.15;;;43.20;36.40;;;;;;4788840;29;20046;-87
2021/06/17 12:15:58;;;;;;;3.42;1.77;;;43.50;35.50;;;;;;4833142;29;20494;-87
2021/06/17 12:18:26;;;;;;;3.17;2.10;;;43.40;35.50;;;;;;4803430;29;20076;-88
2021/06/17 12:20:53;;;;;;;4.90;2.05;;;43.30;35.70;;;;;;4816474;29;20037;-87
2021/06/17 12:23:23;;;;;;;3.72;1.92;;;43.10;35.80;;;;;;4833489;29;20639;-87
2021/06/17 12:26:03;;;;;;;7.30;2.03;;;43.00;35.70;;;;;;4818069;29;20040;-88
2021/06/17 12:28:31;;;;;;;3.78;2.00;;;43.10;35.50;;;;;;4817632;29;20056;-88
2021/06/17 12:30:59;;;;;;;3.60;1.52;;;43.30;35.00;;;;;;4817922;29;20371;-88
2021/06/17 12:33:34;;;;;;;5.60;1.15;;;43.70;34.50;;;;;;4819001;29;20038;-89
2021/06/17 12:36:15;;;;;;;3.97;1.10;;;44.00;33.20;;;;;;4805337;29;20050;-88
2021/06/17 12:38:42;;;;;;;3.67;1.20;;;44.10;33.00;;;;;;4804093;29;20065;-89
2021/06/17 12:41:18;;;;;;;3.08;1.73;;;44.10;32.70;;;;;;4817185;29;20046;-89
2021/06/17 12:43:47;;;;;;;5.65;1.30;;;43.90;32.70;;;;;;4817293;29;20042;-88
2021/06/17 12:46:16;;;;;;;2.90;1.00;;;44.00;32.80;;;;;;4831992;29;20512;-87
2021/06/17 12:54:26;;;;;;;3.30;1.10;;;44.20;31.80;;;;;;4817476;29;20045;-89
2021/06/17 12:57:15;;;;;;;3.42;0.90;;;43.90;32.00;;;;;;4816248;29;20054;-87
2021/06/17 12:59:41;;;;;;;2.30;1.02;;;44.10;32.30;;;;;;4817495;29;20054;-88
2021/06/17 13:02:34;;;;;;;3.53;0.75;;;44.60;31.80;;;;;;4831013;29;20042;-87
2021/06/17 13:05:06;;;;;;;4.10;0.98;;;44.90;31.00;;;;;;4815533;29;20061;-88
2021/06/17 13:07:34;;;;;;;2.20;0.90;;;45.30;30.70;;;;;;4833593;29;20923;-88
2021/06/17 13:10:11;;;;;;;2.88;0.80;;;45.50;30.20;;;;;;4808407;29;20051;-89
2021/06/17 13:12:38;;;;;;;5.28;1.23;;;45.70;30.30;;;;;;4816802;29;20041;-91
2021/06/17 13:15:08;;;;;;;2.45;1.00;;;45.90;30.00;;;;;;4832065;29;20042;-88
2021/06/17 13:17:47;;;;;;;6.20;0.90;;;45.90;30.00;;;;;;4802011;29;20045;-84
2021/06/17 13:20:29;;;;;;;2.88;0.90;;;46.10;29.80;;;;;;4816798;29;20041;-85
2021/06/17 13:22:58;;;;;;;3.72;0.75;;;46.10;29.70;;;;;;4831270;29;20058;-84
2021/06/17 13:25:32;;;;;;;5.80;0.90;;;46.20;29.70;;;;;;4817911;29;20042;-84
2021/06/17 13:28:00;;;;;;;1.30;0.82;;;46.20;29.30;;;;;;4832920;29;20045;-83
2021/06/17 13:30:32;;;;;;;2.47;0.98;;;46.20;29.80;;;;;;4802816;29;20048;-85
2021/06/17 13:33:02;;;;;;;9.68;1.45;;;46.40;30.00;;;;;;4803772;29;20041;-85
2021/06/17 13:35:29;;;;;;;1.88;0.80;;;46.60;29.50;;;;;;4831173;29;20061;-84
2021/06/17 13:37:56;;;;;;;2.10;0.75;;;46.80;29.50;;;;;;4806712;29;20046;-84
2021/06/17 13:40:24;;;;;;;3.70;0.90;;;47.00;29.10;;;;;;4816561;29;20069;-84
2021/06/17 13:42:56;;;;;;;3.47;0.70;;;46.70;29.20;;;;;;4819671;29;20060;-84
2021/06/17 13:45:23;;;;;;;5.47;1.13;;;46.60;29.30;;;;;;4832328;29;20045;-85
2021/06/17 13:47:50;;;;;;;5.20;0.80;;;46.70;29.10;;;;;;4801990;29;20057;-84
2021/06/17 13:50:17;;;;;;;3.00;0.60;;;47.00;29.20;;;;;;4817488;29;20042;-84